Time;durP1;ratioP1;P1;durP2;ratioP2;P2;SDS_P1;SDS_P2;PMS_P1;PMS_P2;Temp;Humidity;BMP_temperature;BMP_pressure;BME280_temperature;BME280_humidity;BME280_pressure;Samples;Min_cycle;Max_cycle;Signal;HPM_P1;HPM_P2
2023/09/24 00:02:10;;;;;;;32.05;11.57;;;;;;;;;;5118736;27;20039;-68
2023/09/24 00:04:36;;;;;;;;;;;;;;;;;;5138002;27;20054;-68
2023/09/24 00:07:02;;;;;;;30.65;10.60;;;;;;;;;;5137517;27;20009;-69
2023/09/24 00:09:28;;;;;;;33.92;11.75;;;;;;;;;;5137147;27;20047;-69
2023/09/24 00:11:56;;;;;;;33.35;12.20;;;;;;;;;;5137603;27;20124;-68
2023/09/24 00:14:23;;;;;;;40.97;11.82;;;;;;;;;;5119030;27;20094;-69
2023/09/24 00:16:49;;;;;;;38.47;11.50;;;;;;;;;;5118985;27;20103;-68
2023/09/24 00:19:16;;;;;;;32.75;10.93;;;;;;;;;;5118745;27;20289;-68
2023/09/24 00:21:43;;;;;;;31.58;12.05;;;;;;;;;;5136570;27;20066;-68
2023/09/24 00:24:10;;;;;;;30.10;11.25;;;;;;;;;;5136877;27;20375;-68
2023/09/24 00:26:36;;;;;;;30.50;11.18;;;;;;;;;;5136306;27;20498;-68
2023/09/24 00:29:03;;;;;;;31.33;11.60;;;;;;;;;;5136660;27;20172;-72
2023/09/24 00:31:30;;;;;;;29.33;11.35;;;;;;;;;;5136745;27;20042;-66
2023/09/24 00:33:56;;;;;;;37.00;11.63;;;;;;;;;;5102336;27;20050;-68
2023/09/24 00:36:23;;;;;;;30.67;10.93;;;;;;;;;;5137397;27;20147;-68
2023/09/24 00:38:49;;;;;;;33.55;11.48;;;;;;;;;;5136610;27;20367;-69
2023/09/24 00:41:15;;;;;;;32.33;11.00;;;;;;;;;;5137137;27;20096;-68
2023/09/24 00:43:43;;;;;;;34.08;11.00;;;;;;;;;;5118169;27;20287;-68
2023/09/24 00:46:09;;;;;;;36.72;11.75;;;;;;;;;;5137163;27;20047;-68
2023/09/24 00:48:37;;;;;;;31.30;9.80;;;;;;;;;;5136234;27;20043;-67
2023/09/24 00:51:03;;;;;;;;;;;;;;;;;;5118419;27;20043;-68
2023/09/24 00:53:30;;;;;;;41.10;10.80;;;;;;;;;;5136187;27;19964;-68
2023/09/24 00:55:56;;;;;;;31.45;11.27;;;;;;;;;;5118345;27;20047;-68
2023/09/24 00:58:26;;;;;;;34.50;10.38;;;;;;;;;;5135933;27;20055;-69
2023/09/24 01:00:53;;;;;;;43.40;10.57;;;;;;;;;;5135923;27;20050;-68
2023/09/24 01:03:22;;;;;;;47.25;10.82;;;;;;;;;;5117875;27;20428;-68
2023/09/24 01:05:49;;;;;;;92.40;11.82;;;;;;;;;;5117605;27;20047;-69
2023/09/24 01:08:17;;;;;;;165.88;15.18;;;;;;;;;;5117824;27;20050;-67
2023/09/24 01:10:46;;;;;;;56.70;11.95;;;;;;;;;;5135658;27;20050;-68
2023/09/24 01:13:15;;;;;;;55.42;12.40;;;;;;;;;;5136523;27;20391;-68
2023/09/24 01:15:44;;;;;;;46.88;11.77;;;;;;;;;;5117903;27;20519;-66
2023/09/24 01:18:10;;;;;;;31.83;10.60;;;;;;;;;;5117610;27;20054;-69
2023/09/24 01:20:36;;;;;;;32.90;10.68;;;;;;;;;;5136508;27;20097;-67
2023/09/24 01:23:03;;;;;;;30.17;9.88;;;;;;;;;;5136209;27;20098;-67
2023/09/24 01:25:35;;;;;;;34.88;10.80;;;;;;;;;;5135503;27;20051;-69
2023/09/24 01:28:05;;;;;;;29.77;10.38;;;;;;;;;;5135466;27;20508;-68
2023/09/24 01:30:33;;;;;;;29.05;9.60;;;;;;;;;;5117068;27;20097;-67
2023/09/24 01:32:59;;;;;;;25.15;8.48;;;;;;;;;;5117384;27;20047;-67
2023/09/24 01:35:26;;;;;;;28.57;9.70;;;;;;;;;;5135304;27;20043;-68
2023/09/24 01:37:52;;;;;;;23.42;8.40;;;;;;;;;;5135401;27;20364;-67
2023/09/24 01:40:21;;;;;;;26.15;8.13;;;;;;;;;;5135163;27;20363;-68
2023/09/24 01:42:47;;;;;;;23.08;7.85;;;;;;;;;;5135564;27;20161;-68
2023/09/24 01:45:16;;;;;;;22.95;7.60;;;;;;;;;;5135756;27;20051;-72
2023/09/24 01:47:44;;;;;;;28.83;9.73;;;;;;;;;;5116473;27;20510;-69
2023/09/24 01:50:10;;;;;;;22.73;7.88;;;;;;;;;;5135219;27;20096;-69
2023/09/24 01:52:37;;;;;;;26.65;8.27;;;;;;;;;;5135091;27;20047;-69
2023/09/24 01:55:03;;;;;;;20.87;7.83;;;;;;;;;;5135126;27;20055;-68
2023/09/24 01:57:29;;;;;;;23.38;7.88;;;;;;;;;;5135012;27;20288;-68
2023/09/24 02:00:11;;;;;;;28.15;7.72;;;;;;;;;;5134933;27;20047;-68
2023/09/24 02:02:38;;;;;;;33.50;8.23;;;;;;;;;;5134741;27;20047;-70
2023/09/24 02:05:07;;;;;;;30.38;8.63;;;;;;;;;;5117320;27;20050;-67
2023/09/24 02:07:33;;;;;;;26.23;8.52;;;;;;;;;;5100407;27;20159;-68
2023/09/24 02:09:59;;;;;;;22.58;8.70;;;;;;;;;;5134962;27;20050;-67
2023/09/24 02:12:25;;;;;;;29.50;9.13;;;;;;;;;;5135519;27;20039;-67
2023/09/24 02:14:52;;;;;;;31.17;9.55;;;;;;;;;;5134789;27;20047;-67
2023/09/24 02:17:18;;;;;;;28.92;9.07;;;;;;;;;;5116536;27;20043;-72
2023/09/24 02:19:45;;;;;;;28.02;9.15;;;;;;;;;;5116673;27;20057;-68
2023/09/24 02:22:11;;;;;;;29.15;9.30;;;;;;;;;;5116163;27;20402;-67
2023/09/24 02:24:40;;;;;;;40.28;9.98;;;;;;;;;;5134942;27;20051;-68
2023/09/24 02:27:07;;;;;;;30.23;10.43;;;;;;;;;;5134562;27;20043;-67
2023/09/24 02:29:33;;;;;;;32.03;10.63;;;;;;;;;;5116471;27;20055;-68
2023/09/24 02:31:59;;;;;;;33.95;10.55;;;;;;;;;;5134460;27;20046;-68
2023/09/24 02:34:25;;;;;;;31.35;10.32;;;;;;;;;;5134274;27;20122;-68
2023/09/24 02:36:53;;;;;;;38.40;11.05;;;;;;;;;;5134398;27;20398;-68
2023/09/24 02:39:22;;;;;;;27.85;10.07;;;;;;;;;;5134508;28;20087;-69
2023/09/24 02:41:52;;;;;;;38.00;11.07;;;;;;;;;;5135068;28;20039;-69
2023/09/24 02:44:19;;;;;;;28.27;9.88;;;;;;;;;;5134364;28;20099;-68
2023/09/24 02:46:45;;;;;;;31.30;10.07;;;;;;;;;;5116024;28;20139;-69
2023/09/24 02:49:11;;;;;;;31.67;10.60;;;;;;;;;;5134285;28;20043;-69
2023/09/24 02:51:37;;;;;;;35.60;10.25;;;;;;;;;;5134216;28;20050;-69
2023/09/24 02:54:03;;;;;;;35.58;11.02;;;;;;;;;;5134572;28;20043;-68
2023/09/24 02:56:30;;;;;;;29.77;10.30;;;;;;;;;;5134255;28;20047;-69
2023/09/24 02:58:58;;;;;;;31.95;10.57;;;;;;;;;;5116489;28;20104;-67
2023/09/24 03:01:24;;;;;;;36.17;10.73;;;;;;;;;;5134256;28;20422;-72
2023/09/24 03:03:51;;;;;;;35.75;10.77;;;;;;;;;;5134176;28;20043;-68
2023/09/24 03:06:17;;;;;;;32.85;10.38;;;;;;;;;;5115875;28;20495;-68
2023/09/24 03:08:43;;;;;;;30.50;10.40;;;;;;;;;;5116181;28;20058;-67
2023/09/24 03:11:15;;;;;;;33.30;11.15;;;;;;;;;;5116032;28;20051;-68
2023/09/24 03:13:41;;;;;;;35.00;11.43;;;;;;;;;;5134037;28;20048;-69
2023/09/24 03:16:08;;;;;;;36.47;10.95;;;;;;;;;;5116346;28;20443;-68
2023/09/24 03:18:34;;;;;;;35.75;10.52;;;;;;;;;;5098612;28;20379;-67
2023/09/24 03:21:04;;;;;;;33.55;10.32;;;;;;;;;;5115529;28;20398;-67
2023/09/24 03:23:30;;;;;;;39.63;12.15;;;;;;;;;;5115976;28;20096;-68
2023/09/24 03:25:56;;;;;;;35.67;11.50;;;;;;;;;;5115942;28;20051;-68
2023/09/24 03:28:23;;;;;;;32.30;11.23;;;;;;;;;;5134177;28;20516;-68
2023/09/24 03:30:49;;;;;;;37.80;11.52;;;;;;;;;;5115644;28;20042;-68
2023/09/24 03:33:15;;;;;;;35.88;11.52;;;;;;;;;;5115502;28;20097;-67
2023/09/24 03:35:42;;;;;;;40.15;11.68;;;;;;;;;;5137056;27;20079;-67
2023/09/24 03:38:08;;;;;;;39.00;11.40;;;;;;;;;;5102779;27;20051;-67
2023/09/24 03:40:34;;;;;;;31.75;10.98;;;;;;;;;;5137617;27;20066;-69
2023/09/24 03:43:00;;;;;;;36.95;11.45;;;;;;;;;;5137901;27;20376;-68
2023/09/24 03:45:26;;;;;;;38.85;11.90;;;;;;;;;;5119345;27;20047;-67
2023/09/24 03:47:53;;;;;;;30.58;11.07;;;;;;;;;;5137601;27;20043;-68
2023/09/24 03:50:19;;;;;;;44.50;12.02;;;;;;;;;;5138242;27;20043;-68
2023/09/24 03:52:46;;;;;;;33.60;11.87;;;;;;;;;;5137481;27;20046;-68
2023/09/24 03:55:12;;;;;;;34.40;11.63;;;;;;;;;;5119085;27;20043;-67
2023/09/24 03:57:39;;;;;;;33.55;12.50;;;;;;;;;;5137397;27;20055;-68
2023/09/24 04:00:11;;;;;;;39.92;11.45;;;;;;;;;;5137436;27;20053;-68
2023/09/24 04:02:39;;;;;;;36.83;11.57;;;;;;;;;;5138043;27;20082;-68
2023/09/24 04:05:08;;;;;;;36.28;12.02;;;;;;;;;;5118989;27;20088;-67
2023/09/24 04:07:37;;;;;;;35.95;11.00;;;;;;;;;;5118950;27;20058;-73
2023/09/24 04:10:03;;;;;;;42.33;11.88;;;;;;;;;;5137249;27;20090;-68
2023/09/24 04:12:33;;;;;;;40.33;11.35;;;;;;;;;;5137907;27;20055;-69
2023/09/24 04:15:00;;;;;;;39.83;12.80;;;;;;;;;;5137501;27;20053;-68
2023/09/24 04:17:26;;;;;;;34.35;11.38;;;;;;;;;;5118853;27;20047;-68
2023/09/24 04:19:52;;;;;;;37.75;12.77;;;;;;;;;;5137136;27;20050;-68
2023/09/24 04:22:18;;;;;;;46.47;13.25;;;;;;;;;;5118317;27;20058;-67
2023/09/24 04:24:45;;;;;;;38.70;11.57;;;;;;;;;;5137181;27;20059;-68
2023/09/24 04:27:11;;;;;;;38.60;12.05;;;;;;;;;;5119017;27;20043;-68
2023/09/24 04:29:37;;;;;;;34.67;11.68;;;;;;;;;;5137280;27;20043;-72
2023/09/24 04:32:03;;;;;;;47.28;12.73;;;;;;;;;;5136882;27;20054;-67
2023/09/24 04:34:29;;;;;;;45.78;12.27;;;;;;;;;;5118915;27;20379;-68
2023/09/24 04:36:56;;;;;;;42.67;13.30;;;;;;;;;;5118778;27;20433;-68
2023/09/24 04:39:22;;;;;;;49.25;13.75;;;;;;;;;;5136537;27;20051;-68
2023/09/24 04:41:49;;;;;;;40.83;12.35;;;;;;;;;;5137198;27;20047;-67
2023/09/24 04:44:15;;;;;;;45.78;14.55;;;;;;;;;;5136520;27;20095;-68
2023/09/24 04:46:41;;;;;;;46.15;13.15;;;;;;;;;;5117909;27;20086;-71
2023/09/24 04:49:08;;;;;;;47.03;13.30;;;;;;;;;;5136341;27;20039;-68
2023/09/24 04:51:37;;;;;;;43.88;14.85;;;;;;;;;;5136465;27;20043;-69
2023/09/24 04:54:03;;;;;;;52.10;14.15;;;;;;;;;;5136485;27;20426;-69
2023/09/24 04:56:29;;;;;;;44.03;13.27;;;;;;;;;;5136076;27;20054;-69
2023/09/24 04:58:56;;;;;;;51.08;14.23;;;;;;;;;;5136188;27;20107;-68
2023/09/24 05:01:22;;;;;;;43.43;13.63;;;;;;;;;;5136076;27;20035;-67
2023/09/24 05:03:51;;;;;;;51.38;14.57;;;;;;;;;;5136218;27;20039;-69
2023/09/24 05:06:18;;;;;;;48.10;15.20;;;;;;;;;;5117703;27;20051;-69
2023/09/24 05:08:44;;;;;;;49.75;14.25;;;;;;;;;;5101570;27;20352;-69
2023/09/24 05:11:11;;;;;;;50.70;15.70;;;;;;;;;;5136692;27;20433;-67
2023/09/24 05:13:37;;;;;;;50.63;14.30;;;;;;;;;;5135824;27;20039;-68
2023/09/24 05:16:03;;;;;;;48.65;15.23;;;;;;;;;;5135758;27;20183;-67
2023/09/24 05:18:29;;;;;;;55.13;14.27;;;;;;;;;;5117721;27;20049;-69
2023/09/24 05:20:56;;;;;;;50.35;15.18;;;;;;;;;;5135533;27;20035;-68
2023/09/24 05:23:23;;;;;;;48.80;14.77;;;;;;;;;;5135778;27;20141;-68
2023/09/24 05:25:53;;;;;;;49.88;14.88;;;;;;;;;;5135394;27;20295;-68
2023/09/24 05:28:19;;;;;;;50.83;15.02;;;;;;;;;;5117915;27;20043;-69
2023/09/24 05:30:57;;;;;;;49.03;14.88;;;;;;;;;;5117701;27;20043;-72
2023/09/24 05:33:23;;;;;;;48.08;14.80;;;;;;;;;;5117175;27;20487;-68
2023/09/24 05:35:50;;;;;;;55.25;16.35;;;;;;;;;;5135276;27;20043;-69
2023/09/24 05:38:16;;;;;;;43.80;15.15;;;;;;;;;;5135174;27;20043;-69
2023/09/24 05:40:43;;;;;;;55.72;15.77;;;;;;;;;;5116714;27;20050;-68
2023/09/24 05:43:09;;;;;;;52.92;15.70;;;;;;;;;;5116763;27;20487;-68
2023/09/24 05:45:35;;;;;;;57.57;15.70;;;;;;;;;;5134909;27;20043;-68
2023/09/24 05:48:01;;;;;;;51.85;16.23;;;;;;;;;;5116863;27;20369;-69
2023/09/24 05:50:29;;;;;;;54.88;17.38;;;;;;;;;;5116750;27;20054;-69
2023/09/24 05:52:55;;;;;;;51.05;17.20;;;;;;;;;;5134494;27;20556;-68
2023/09/24 05:55:21;;;;;;;50.70;16.88;;;;;;;;;;5117128;27;20046;-68
2023/09/24 05:57:47;;;;;;;53.90;17.45;;;;;;;;;;5115874;27;20057;-72
2023/09/24 06:00:13;;;;;;;64.67;17.83;;;;;;;;;;5134817;27;20047;-68
2023/09/24 06:02:40;;;;;;;49.97;17.53;;;;;;;;;;5134695;27;20039;-68
2023/09/24 06:05:07;;;;;;;55.30;17.35;;;;;;;;;;5134743;27;20047;-69
2023/09/24 06:07:33;;;;;;;52.78;17.08;;;;;;;;;;5135058;27;20046;-69
2023/09/24 06:10:04;;;;;;;51.25;16.40;;;;;;;;;;5134596;27;20079;-67
2023/09/24 06:12:31;;;;;;;56.13;17.98;;;;;;;;;;5135298;27;20043;-68
2023/09/24 06:14:57;;;;;;;53.50;16.25;;;;;;;;;;5099476;27;20395;-68
2023/09/24 06:17:23;;;;;;;60.22;17.50;;;;;;;;;;5116193;27;20047;-68
2023/09/24 06:19:49;;;;;;;59.60;17.67;;;;;;;;;;5134201;27;20440;-73
2023/09/24 06:22:15;;;;;;;55.67;17.50;;;;;;;;;;5115683;27;20088;-68
2023/09/24 06:24:41;;;;;;;60.42;18.42;;;;;;;;;;5116008;27;20083;-70
2023/09/24 06:27:07;;;;;;;55.78;18.25;;;;;;;;;;5134285;27;20043;-67
2023/09/24 06:29:35;;;;;;;57.10;17.30;;;;;;;;;;5134304;27;20107;-69
2023/09/24 06:32:01;;;;;;;62.70;18.63;;;;;;;;;;5116184;27;20432;-70
2023/09/24 06:34:28;;;;;;;57.30;19.30;;;;;;;;;;5134309;27;20047;-69
2023/09/24 06:36:54;;;;;;;60.47;18.58;;;;;;;;;;5116032;27;20371;-70
2023/09/24 06:39:20;;;;;;;54.05;18.02;;;;;;;;;;5134045;28;20043;-70
2023/09/24 06:41:46;;;;;;;66.32;19.65;;;;;;;;;;5133915;28;20039;-67
2023/09/24 06:44:14;;;;;;;62.40;18.98;;;;;;;;;;5133896;28;20054;-72
2023/09/24 06:46:41;;;;;;;62.50;19.73;;;;;;;;;;5116095;28;20058;-68
2023/09/24 06:49:07;;;;;;;52.72;19.33;;;;;;;;;;5115946;28;20475;-68
2023/09/24 06:51:33;;;;;;;57.30;19.83;;;;;;;;;;5115920;28;20043;-68
2023/09/24 06:53:59;;;;;;;55.83;20.23;;;;;;;;;;5134110;28;20039;-69
2023/09/24 06:56:26;;;;;;;54.15;18.92;;;;;;;;;;5134212;28;20043;-67
2023/09/24 06:58:52;;;;;;;50.78;19.67;;;;;;;;;;5115516;28;20079;-68
2023/09/24 07:01:18;;;;;;;62.67;19.67;;;;;;;;;;5134958;28;20050;-69
2023/09/24 07:03:47;;;;;;;56.78;19.65;;;;;;;;;;5134050;28;20047;-68
2023/09/24 07:06:15;;;;;;;58.72;19.35;;;;;;;;;;5134648;28;20051;-72
2023/09/24 07:08:41;;;;;;;62.05;19.15;;;;;;;;;;5116158;27;20471;-68
2023/09/24 07:11:28;;;;;;;53.90;17.95;;;;;;;;;;5119911;27;20035;-69
2023/09/24 07:13:53;;;;;;;;;;;;;;;;;;5119977;27;20510;-69
2023/09/24 07:16:22;;;;;;;56.97;18.87;;;;;;;;;;5138007;27;19935;-68
2023/09/24 07:18:50;;;;;;;59.97;19.10;;;;;;;;;;5137897;27;20057;-69
2023/09/24 07:21:16;;;;;;;57.78;19.75;;;;;;;;;;5137548;27;20089;-68
2023/09/24 07:23:42;;;;;;;55.78;19.88;;;;;;;;;;5137587;27;20097;-68
2023/09/24 07:26:08;;;;;;;52.70;19.42;;;;;;;;;;5120033;27;20497;-68
2023/09/24 07:28:35;;;;;;;53.80;20.20;;;;;;;;;;5119387;27;20054;-68
2023/09/24 07:31:01;;;;;;;59.58;21.10;;;;;;;;;;5137699;27;20092;-70
2023/09/24 07:33:27;;;;;;;53.92;19.75;;;;;;;;;;5137639;27;20043;-68
2023/09/24 07:35:53;;;;;;;50.90;19.02;;;;;;;;;;5137694;27;20050;-68
2023/09/24 07:38:19;;;;;;;60.53;20.65;;;;;;;;;;5137558;27;20042;-68
2023/09/24 07:40:45;;;;;;;63.35;20.27;;;;;;;;;;5119051;27;20055;-67
2023/09/24 07:43:11;;;;;;;59.92;19.83;;;;;;;;;;5101927;27;20125;-68
2023/09/24 07:45:38;;;;;;;52.97;17.83;;;;;;;;;;5137299;27;20051;-67
2023/09/24 07:48:10;;;;;;;51.47;18.58;;;;;;;;;;5119369;27;20036;-69
2023/09/24 07:50:36;;;;;;;55.00;19.20;;;;;;;;;;5119625;27;20387;-69
2023/09/24 07:53:03;;;;;;;64.78;19.88;;;;;;;;;;5137025;27;20039;-71
2023/09/24 07:55:29;;;;;;;58.47;18.85;;;;;;;;;;5137398;27;20043;-68
2023/09/24 07:57:55;;;;;;;56.28;18.38;;;;;;;;;;5137607;27;20119;-68
2023/09/24 08:00:21;;;;;;;60.28;19.52;;;;;;;;;;5137127;27;20046;-68
2023/09/24 08:02:47;;;;;;;65.38;19.45;;;;;;;;;;5136575;27;20479;-68
2023/09/24 08:05:15;;;;;;;49.92;19.60;;;;;;;;;;5119019;27;20127;-68
2023/09/24 08:07:40;;;;;;;;;;;;;;;;;;5119410;27;20139;-68
2023/09/24 08:10:07;;;;;;;55.25;17.65;;;;;;;;;;5136770;27;19927;-69
2023/09/24 08:12:34;;;;;;;48.88;17.58;;;;;;;;;;5136605;27;20496;-68
2023/09/24 08:15:00;;;;;;;51.03;17.65;;;;;;;;;;5137110;27;20047;-68
2023/09/24 08:17:26;;;;;;;52.90;18.17;;;;;;;;;;5136801;27;20050;-66
2023/09/24 08:19:52;;;;;;;50.92;17.67;;;;;;;;;;5101439;27;20108;-67
2023/09/24 08:22:19;;;;;;;53.45;17.55;;;;;;;;;;5135309;27;20399;-69
2023/09/24 08:24:45;;;;;;;56.60;18.23;;;;;;;;;;5118387;27;20047;-68
2023/09/24 08:27:11;;;;;;;48.80;16.73;;;;;;;;;;5136601;27;20058;-68
2023/09/24 08:29:37;;;;;;;51.80;17.15;;;;;;;;;;5136495;27;20349;-67
2023/09/24 08:32:03;;;;;;;50.42;17.05;;;;;;;;;;5118064;27;20035;-67
2023/09/24 08:34:30;;;;;;;49.65;16.90;;;;;;;;;;5137082;27;20054;-68
2023/09/24 08:36:56;;;;;;;59.15;17.70;;;;;;;;;;5101386;27;20043;-67
2023/09/24 08:39:22;;;;;;;50.47;17.40;;;;;;;;;;5118653;27;20096;-66
2023/09/24 08:41:48;;;;;;;56.40;16.13;;;;;;;;;;5136208;27;20039;-68
2023/09/24 08:44:15;;;;;;;46.50;16.30;;;;;;;;;;5136135;27;20047;-69
2023/09/24 08:46:42;;;;;;;45.97;16.63;;;;;;;;;;5136373;27;20058;-67
2023/09/24 08:49:08;;;;;;;;;;;13.60;99.90;;;;;;5137308;27;20051;-67
2023/09/24 08:51:34;;;;;;;43.43;15.33;;;13.70;99.90;;;;;;5136262;27;19946;-68
2023/09/24 08:54:01;;;;;;;41.00;15.38;;;13.80;99.90;;;;;;5135874;27;20051;-68
2023/09/24 08:56:27;;;;;;;47.95;15.65;;;13.90;99.90;;;;;;5117699;27;20479;-67
2023/09/24 08:58:54;;;;;;;47.17;14.77;;;14.00;99.90;;;;;;5100313;27;20054;-68
2023/09/24 09:01:20;;;;;;;52.90;16.25;;;14.00;99.90;;;;;;5100972;27;20117;-68
2023/09/24 09:03:47;;;;;;;52.80;15.45;;;14.10;99.90;;;;;;5135940;27;20085;-69
2023/09/24 09:06:33;;;;;;;47.55;14.93;;;14.20;99.90;;;;;;5117116;27;20065;-72
2023/09/24 09:08:59;;;;;;;50.17;15.13;;;14.30;99.90;;;;;;5135937;27;20129;-68
2023/09/24 09:11:38;;;;;;;40.47;13.43;;;14.40;99.90;;;;;;5135715;27;20089;-67
2023/09/24 09:14:04;;;;;;;36.50;12.40;;;14.50;99.90;;;;;;5100947;27;20047;-68
2023/09/24 09:16:31;;;;;;;37.20;12.90;;;14.60;99.90;;;;;;5135092;27;20116;-69
2023/09/24 09:19:01;;;;;;;34.60;12.00;;;14.60;99.90;;;;;;5117236;27;20058;-69
2023/09/24 09:21:27;;;;;;;36.10;11.02;;;14.80;99.90;;;;;;5100365;27;20481;-68
2023/09/24 09:23:53;;;;;;;37.97;10.47;;;14.90;99.90;;;;;;5117279;27;20094;-67
2023/09/24 09:26:26;;;;;;;38.10;11.90;;;14.80;99.90;;;;;;5117529;27;20416;-69
2023/09/24 09:28:52;;;;;;;41.05;11.77;;;14.90;99.90;;;;;;5083801;27;20086;-67
2023/09/24 09:31:18;;;;;;;41.95;12.10;;;15.00;99.90;;;;;;5099714;27;20043;-69
2023/09/24 09:33:45;;;;;;;37.25;11.40;;;15.00;99.90;;;;;;5099912;27;20054;-69
2023/09/24 09:36:30;;;;;;;40.25;11.73;;;15.10;99.90;;;;;;5116951;27;20062;-67
2023/09/24 09:38:57;;;;;;;34.20;10.30;;;15.20;99.90;;;;;;5136018;27;20091;-68
2023/09/24 09:41:23;;;;;;;;;;;15.20;99.90;;;;;;5116973;27;20125;-67
2023/09/24 09:43:52;;;;;;;37.78;10.55;;;15.40;99.90;;;;;;5116905;27;19943;-68
2023/09/24 09:46:19;;;;;;;31.25;7.60;;;;;;;;;;5135113;27;20043;-78
2023/09/24 09:48:50;;;;;;;32.67;8.98;;;;;;;;;;5135733;27;20485;-68
2023/09/24 09:51:19;;;;;;;33.25;7.78;;;;;;;;;;5135297;27;20062;-69
2023/09/24 09:53:45;;;;;;;22.15;6.07;;;;;;;;;;5134952;27;20460;-67
2023/09/24 09:56:12;;;;;;;26.63;6.70;;;;;;;;;;5135157;27;20046;-67
2023/09/24 09:58:38;;;;;;;26.15;7.20;;;15.90;99.90;;;;;;5116501;27;20440;-69
2023/09/24 10:01:06;;;;;;;23.63;5.60;;;16.10;99.90;;;;;;5116563;27;20047;-68
2023/09/24 10:03:39;;;;;;;22.85;6.60;;;16.10;99.90;;;;;;5117195;27;20039;-69
2023/09/24 10:06:08;;;;;;;23.33;5.78;;;;;;;;;;5117003;27;20527;-67
2023/09/24 10:08:44;;;;;;;19.15;5.35;;;;;;;;;;5134655;27;20043;-68
2023/09/24 10:11:13;;;;;;;24.38;4.97;;;;;;;;;;5134454;27;20051;-69
2023/09/24 10:13:49;;;;;;;20.15;4.00;;;;;;;;;;5134683;27;20130;-68
2023/09/24 10:16:35;;;;;;;15.77;5.07;;;;;;;;;;5134605;27;20384;-67
2023/09/24 10:19:13;;;;;;;12.90;3.90;;;;;;;;;;5135230;27;20062;-69
2023/09/24 10:21:43;;;;;;;24.67;4.70;;;;;;;;;;5134922;27;20047;-68
2023/09/24 10:24:15;;;;;;;13.90;3.85;;;;;;;;;;5134493;27;20043;-69
2023/09/24 10:26:49;;;;;;;14.45;3.60;;;;;;;;;;5135182;27;20082;-70
2023/09/24 10:29:38;;;;;;;14.70;3.05;;;;;;;;;;5134956;27;20134;-68
2023/09/24 10:32:10;;;;;;;14.93;4.10;;;;;;;;;;5134352;27;20043;-68
2023/09/24 10:34:59;;;;;;;16.40;3.33;;;;;;;;;;5133983;27;20487;-68
2023/09/24 10:37:29;;;;;;;13.23;3.00;;;;;;;;;;5121944;27;20058;-68
2023/09/24 10:40:04;;;;;;;17.10;2.88;;;;;;;;;;5116244;28;20058;-67
2023/09/24 10:42:30;;;;;;;12.20;3.50;;;;;;;;;;5134712;28;20043;-67
2023/09/24 10:45:18;;;;;;;13.18;2.78;;;;;;;;;;5133829;27;20060;-66
2023/09/24 10:47:44;;;;;;;11.27;2.33;;;;;;;;;;5116419;28;20138;-67
2023/09/24 10:50:15;;;;;;;17.08;2.63;;;;;;;;;;5134251;28;20050;-67
2023/09/24 10:52:47;;;;;;;15.05;2.90;;;;;;;;;;5134532;28;20039;-68
2023/09/24 10:55:13;;;;;;;16.17;2.75;;;;;;;;;;5116846;28;20047;-67
2023/09/24 10:57:43;;;;;;;12.40;2.63;;;;;;;;;;5116026;28;20047;-67
2023/09/24 11:00:15;;;;;;;15.18;2.80;;;;;;;;;;5134343;28;20045;-67
2023/09/24 11:02:41;;;;;;;20.85;2.92;;;;;;;;;;5115561;28;20096;-67
2023/09/24 11:05:08;;;;;;;14.97;2.97;;;;;;;;;;5115619;28;20039;-68
2023/09/24 11:07:34;;;;;;;11.98;2.55;;;;;;;;;;5116002;28;20051;-68
2023/09/24 11:10:00;;;;;;;13.60;2.33;;;;;;;;;;5099465;28;20046;-66
2023/09/24 11:12:26;;;;;;;11.87;2.43;;;;;;;;;;5133997;28;20035;-68
2023/09/24 11:14:56;;;;;;;14.70;2.73;;;;;;;;;;5133900;28;20398;-66
2023/09/24 11:17:22;;;;;;;16.15;3.00;;;;;;;;;;5116411;28;20042;-69
2023/09/24 11:19:49;;;;;;;15.57;2.97;;;;;;;;;;5133818;28;20100;-68
2023/09/24 11:22:18;;;;;;;17.88;2.53;;;;;;;;;;5133978;28;20305;-67
2023/09/24 11:24:44;;;;;;;12.70;2.75;;;;;;;;;;5133691;28;20094;-67
2023/09/24 11:27:11;;;;;;;16.38;3.28;;;;;;;;;;5133726;28;20048;-68
2023/09/24 11:29:37;;;;;;;18.00;2.55;;;;;;;;;;5133760;28;20177;-68
2023/09/24 11:32:03;;;;;;;17.42;3.47;;;;;;;;;;5133809;28;20047;-68
2023/09/24 11:34:29;;;;;;;18.17;3.10;;;;;;;;;;5115329;28;20483;-68
2023/09/24 11:36:56;;;;;;;10.60;3.17;;;;;;;;;;5115392;28;20080;-66
2023/09/24 11:39:23;;;;;;;15.82;2.75;;;;;;;;;;5134376;28;20482;-68
2023/09/24 11:41:50;;;;;;;13.38;3.30;;;;;;;;;;5133536;28;20085;-67
2023/09/24 11:44:16;;;;;;;12.65;2.78;;;;;;;;;;5115210;28;20130;-67
2023/09/24 11:46:43;;;;;;;15.57;3.50;;;;;;;;;;5133270;28;20174;-66
2023/09/24 11:49:10;;;;;;;18.98;3.85;;;;;;;;;;5115516;28;20057;-67
2023/09/24 11:51:36;;;;;;;21.35;3.63;;;;;;;;;;5133719;28;20035;-67
2023/09/24 11:54:02;;;;;;;15.65;3.22;;;;;;;;;;5133641;28;20043;-67
2023/09/24 11:56:29;;;;;;;15.52;3.90;;;;;;;;;;5134622;27;20039;-68
2023/09/24 11:58:55;;;;;;;14.60;2.05;;;;;;;;;;5137744;27;20055;-67
2023/09/24 12:01:21;;;;;;;21.05;3.30;;;;;;;;;;5137120;27;20083;-67
2023/09/24 12:03:49;;;;;;;11.70;3.03;;;;;;;;;;5137130;27;20047;-67
2023/09/24 12:06:15;;;;;;;10.98;2.45;;;;;;;;;;5137938;27;20051;-66
2023/09/24 12:08:42;;;;;;;15.52;3.55;;;;;;;;;;5137900;27;20393;-72
2023/09/24 12:11:08;;;;;;;13.60;2.95;;;;;;;;;;5118849;27;20390;-66
2023/09/24 12:13:34;;;;;;;9.60;2.60;;;;;;;;;;5084926;27;20047;-70
2023/09/24 12:16:00;;;;;;;10.73;2.75;;;;;;;;;;5136745;27;20039;-67
2023/09/24 12:18:26;;;;;;;13.97;3.50;;;;;;;;;;5136878;27;20130;-67
2023/09/24 12:20:53;;;;;;;9.73;2.28;;;;;;;;;;5101592;27;20043;-68
2023/09/24 12:23:19;;;;;;;11.27;2.38;;;;;;;;;;5118740;27;20059;-66
2023/09/24 12:25:46;;;;;;;11.77;2.30;;;;;;;;;;5118242;27;20043;-67
2023/09/24 12:28:16;;;;;;;12.15;1.85;;;;;;;;;;5136546;27;20636;-70
2023/09/24 12:30:43;;;;;;;17.48;2.42;;;;;;;;;;5118418;27;20043;-67
2023/09/24 12:33:09;;;;;;;16.23;2.30;;;;;;;;;;5136581;27;20047;-68
2023/09/24 12:35:40;;;;;;;13.65;2.53;;;;;;;;;;5136645;27;20209;-67
2023/09/24 12:38:06;;;;;;;14.75;2.53;;;;;;;;;;5136604;27;20084;-68
2023/09/24 12:40:33;;;;;;;13.77;2.75;;;;;;;;;;5136535;27;20043;-67
2023/09/24 12:42:59;;;;;;;11.65;2.17;;;;;;;;;;5136815;27;20478;-68
2023/09/24 12:45:26;;;;;;;14.67;2.00;;;;;;;;;;5137168;27;20065;-69
2023/09/24 12:47:52;;;;;;;27.05;3.42;;;;;;;;;;5117557;27;20063;-68
2023/09/24 12:50:18;;;;;;;13.32;2.53;;;;;;;;;;5101556;27;20057;-68
2023/09/24 12:52:45;;;;;;;11.18;2.33;;;;;;;;;;5117427;27;20511;-68
2023/09/24 12:55:11;;;;;;;9.35;2.03;;;;;;;;;;5117780;27;20104;-67
2023/09/24 12:57:38;;;;;;;11.13;2.50;;;;;;;;;;5136115;27;20046;-67
2023/09/24 13:00:12;;;;;;;10.25;2.10;;;;;;;;;;5135951;27;20047;-66
2023/09/24 13:02:40;;;;;;;12.88;3.00;;;;;;;;;;5136644;27;20046;-67
2023/09/24 13:05:07;;;;;;;24.58;4.93;;;;;;;;;;5117795;27;20096;-67
2023/09/24 13:07:33;;;;;;;15.43;1.88;;;;;;;;;;5135443;27;20129;-73
2023/09/24 13:09:59;;;;;;;14.05;1.85;;;;;;;;;;5135828;27;20047;-66
2023/09/24 13:12:25;;;;;;;18.67;2.13;;;;;;;;;;5118354;27;20077;-69
2023/09/24 13:14:51;;;;;;;14.43;3.00;;;;;;;;;;5117298;27;20116;-72
2023/09/24 13:17:17;;;;;;;8.45;2.10;;;;;;;;;;5135597;27;20092;-68
2023/09/24 13:19:43;;;;;;;18.43;2.50;;;;;;;;;;5135570;27;20043;-70
2023/09/24 13:22:10;;;;;;;15.45;1.95;;;;;;;;;;5100137;27;20305;-67
2023/09/24 13:24:39;;;;;;;10.15;2.05;;;;;;;;;;5135545;27;20081;-67
2023/09/24 13:27:06;;;;;;;12.75;2.25;;;;;;;;;;5116891;27;20055;-67
2023/09/24 13:29:32;;;;;;;11.15;2.20;;;;;;;;;;5135359;27;20051;-67
2023/09/24 13:31:58;;;;;;;11.68;2.20;;;;;;;;;;5135346;27;20046;-68
2023/09/24 13:34:24;;;;;;;10.38;2.00;;;;;;;;;;5117078;28;20053;-68
2023/09/24 13:36:50;;;;;;;9.18;1.83;;;;;;;;;;5117431;27;20096;-67
2023/09/24 13:39:16;;;;;;;9.33;1.80;;;;;;;;;;5135202;27;20050;-68
2023/09/24 13:41:42;;;;;;;14.75;2.22;;;;;;;;;;5135093;27;20373;-68
2023/09/24 13:44:09;;;;;;;6.55;1.65;;;;;;;;;;5135184;27;20091;-67
2023/09/24 13:46:35;;;;;;;9.00;1.38;;;;;;;;;;5135147;27;20074;-67
2023/09/24 13:49:04;;;;;;;9.32;1.80;;;;;;;;;;5134948;27;20047;-67
2023/09/24 13:51:31;;;;;;;14.82;2.33;;;;;;;;;;5135043;27;20047;-68
2023/09/24 13:53:57;;;;;;;8.40;2.13;;;;;;;;;;5134814;27;20055;-68
2023/09/24 13:56:23;;;;;;;9.40;1.83;;;;;;;;;;5117575;27;20370;-67
2023/09/24 13:58:49;;;;;;;10.25;2.35;;;;;;;;;;5134930;27;20283;-69
2023/09/24 14:01:15;;;;;;;12.77;2.20;;;;;;;;;;5134346;27;20494;-68
2023/09/24 14:03:41;;;;;;;12.87;2.17;;;;;;;;;;5135542;27;20066;-68
2023/09/24 14:06:07;;;;;;;9.43;2.10;;;;;;;;;;5135225;27;20341;-66
2023/09/24 14:14:05;;;;;;;9.43;1.60;;;;;;;;;;5134548;27;20090;-67
2023/09/24 14:16:32;;;;;;;8.20;1.90;;;;;;;;;;5116719;27;20405;-67
2023/09/24 14:18:58;;;;;;;8.10;2.00;;;;;;;;;;5134543;27;20450;-66
2023/09/24 14:21:24;;;;;;;13.30;1.80;;;;;;;;;;5134419;27;20067;-67
2023/09/24 14:23:50;;;;;;;13.07;2.33;;;;;;;;;;5135081;27;20138;-67